createdAt,value
2022-08-26T00:04:02.506Z,19.25
2022-08-26T00:08:25.823Z,19.50
2022-08-26T00:12:48.483Z,19.65
2022-08-26T00:17:11.204Z,19.63
2022-08-26T00:21:33.623Z,20.25
2022-08-26T00:25:56.829Z,21.25
2022-08-26T00:30:25.104Z,20.80
2022-08-26T00:34:49.224Z,21.05
2022-08-26T00:39:11.905Z,22.75
2022-08-26T00:43:46.071Z,20.60
2022-08-26T00:48:11.509Z,20.65
2022-08-26T00:52:35.124Z,21.08
2022-08-26T00:57:00.321Z,21.35
2022-08-26T01:01:23.090Z,21.10
2022-08-26T01:05:46.916Z,21.27
2022-08-26T01:10:17.785Z,23.42
2022-08-26T01:14:41.344Z,22.02
2022-08-26T01:19:32.064Z,21.60
2022-08-26T01:23:57.219Z,21.83
2022-08-26T01:28:25.625Z,20.83
2022-08-26T01:32:50.939Z,22.02
2022-08-26T01:37:22.306Z,21.92
2022-08-26T01:41:46.686Z,22.33
2022-08-26T01:46:17.812Z,21.70
2022-08-26T01:50:41.159Z,23.05
2022-08-26T01:55:07.269Z,25.85
2022-08-26T01:59:30.663Z,28.70
2022-08-26T02:04:36.819Z,28.23
2022-08-26T02:09:02.441Z,28.13
2022-08-26T02:13:30.342Z,27.63
2022-08-26T02:17:53.528Z,27.15
2022-08-26T02:22:24.648Z,26.70
2022-08-26T02:26:48.502Z,25.88
2022-08-26T02:31:10.887Z,30.08
2022-08-26T02:35:35.114Z,39.40
2022-08-26T02:39:57.721Z,30.80
2022-08-26T02:44:20.501Z,31.30
2022-08-26T02:48:42.902Z,30.20
2022-08-26T02:53:06.940Z,29.70
2022-08-26T02:57:29.642Z,32.97
2022-08-26T03:01:52.322Z,31.05
2022-08-26T03:06:18.582Z,29.92
2022-08-26T03:10:41.542Z,30.92
2022-08-26T03:15:17.304Z,29.90
2022-08-26T03:19:40.195Z,51.20
2022-08-26T03:24:04.101Z,32.30
2022-08-26T03:28:27.173Z,30.08
2022-08-26T03:32:49.861Z,31.67
2022-08-26T03:37:12.181Z,31.35
2022-08-26T03:41:36.961Z,30.52
2022-08-26T03:45:59.642Z,47.15
2022-08-26T03:50:24.265Z,31.95
2022-08-26T03:54:47.203Z,33.58
2022-08-26T03:59:09.441Z,35.40
2022-08-26T04:03:50.522Z,35.70
2022-08-26T04:08:12.914Z,37.08
2022-08-26T04:12:37.761Z,37.05
2022-08-26T04:17:00.282Z,34.08
2022-08-26T04:21:23.182Z,37.63
2022-08-26T04:25:46.215Z,37.03
2022-08-26T04:30:10.484Z,36.05
2022-08-26T04:34:33.081Z,36.42
2022-08-26T04:38:57.019Z,35.95
2022-08-26T04:43:19.882Z,35.22
2022-08-26T04:47:42.181Z,33.83
2022-08-26T04:52:05.541Z,34.00
2022-08-26T04:56:34.296Z,27.20
2022-08-26T05:00:56.932Z,23.27
2022-08-26T05:05:19.402Z,17.13
2022-08-26T05:09:43.681Z,13.75
2022-08-26T05:14:06.961Z,12.70
2022-08-26T05:18:30.564Z,11.20
2022-08-26T05:22:52.802Z,11.25
2022-08-26T05:27:15.721Z,9.70
2022-08-26T05:31:40.361Z,10.23
2022-08-26T05:36:12.482Z,9.75
2022-08-26T05:40:40.972Z,9.93
2022-08-26T05:45:04.602Z,10.02
2022-08-26T05:49:27.001Z,9.77
2022-08-26T05:53:54.900Z,10.90
2022-08-26T05:58:20.501Z,11.15
2022-08-26T06:02:42.937Z,10.32
2022-08-26T06:07:05.392Z,11.13
2022-08-26T06:11:29.896Z,11.13
2022-08-26T06:15:53.595Z,11.02
2022-08-26T06:20:16.201Z,10.30
2022-08-26T06:24:58.245Z,10.13
2022-08-26T06:29:24.083Z,11.63
2022-08-26T06:33:48.021Z,10.13
2022-08-26T06:38:10.902Z,10.20
2022-08-26T06:42:34.101Z,10.35
2022-08-26T06:46:56.645Z,10.43
2022-08-26T06:51:23.733Z,10.00
2022-08-26T06:55:47.401Z,9.93
2022-08-26T07:00:15.881Z,9.15
2022-08-26T07:04:42.402Z,9.07
2022-08-26T07:09:07.421Z,7.72
2022-08-26T07:13:32.384Z,8.70
2022-08-26T07:17:54.921Z,7.78
2022-08-26T07:22:18.984Z,8.48
2022-08-26T07:26:43.069Z,8.38
2022-08-26T07:31:11.115Z,7.97
2022-08-26T07:35:34.942Z,7.68
2022-08-26T07:39:58.401Z,7.63
2022-08-26T07:44:21.379Z,8.00
2022-08-26T07:48:46.041Z,6.85
2022-08-26T07:53:09.264Z,7.20
2022-08-26T07:57:33.881Z,7.47
2022-08-26T08:02:00.224Z,7.72
2022-08-26T08:06:27.334Z,6.72
2022-08-26T08:10:50.714Z,7.15
2022-08-26T08:15:14.648Z,6.90
2022-08-26T08:19:39.213Z,6.68
2022-08-26T08:24:02.021Z,5.72
2022-08-26T08:28:24.563Z,6.07
2022-08-26T08:32:48.382Z,6.32
2022-08-26T08:37:11.005Z,6.00
2022-08-26T08:42:28.242Z,5.78
2022-08-26T08:47:06.482Z,5.57
2022-08-26T08:51:50.703Z,6.70
2022-08-26T08:56:13.042Z,5.90
2022-08-26T09:00:49.528Z,6.03
2022-08-26T09:05:28.803Z,6.40
2022-08-26T09:10:01.382Z,6.03
2022-08-26T09:14:23.943Z,5.97
2022-08-26T09:19:07.423Z,6.18
2022-08-26T09:23:32.411Z,6.00
2022-08-26T09:27:54.962Z,5.97
2022-08-26T09:32:24.542Z,5.60
2022-08-26T09:36:52.862Z,5.35
2022-08-26T09:41:33.041Z,7.25
2022-08-26T09:46:19.806Z,6.07
2022-08-26T09:51:03.762Z,6.55
2022-08-26T09:55:34.141Z,6.72
2022-08-26T09:59:56.942Z,7.63
2022-08-26T10:04:26.908Z,6.30
2022-08-26T10:08:59.323Z,5.40
2022-08-26T10:13:42.695Z,4.63
2022-08-26T10:18:19.882Z,7.57
2022-08-26T10:22:45.964Z,8.40
2022-08-26T10:27:59.303Z,9.77
2022-08-26T10:32:48.994Z,9.90
2022-08-26T10:37:20.803Z,10.73
2022-08-26T10:41:45.773Z,8.57
2022-08-26T10:46:20.198Z,9.15
2022-08-26T10:50:47.609Z,10.48
2022-08-26T10:55:21.082Z,9.88
2022-08-26T11:00:34.844Z,9.20
2022-08-26T11:05:15.372Z,9.50
2022-08-26T11:09:49.749Z,9.10
2022-08-26T11:14:29.250Z,8.80
2022-08-26T11:18:56.337Z,10.02
2022-08-26T11:23:24.743Z,9.15
2022-08-26T11:27:51.698Z,8.65
2022-08-26T11:32:56.216Z,8.77
2022-08-26T11:41:49.782Z,9.05
2022-08-26T11:46:30.629Z,8.32
2022-08-26T11:51:02.684Z,7.35
2022-08-26T11:55:25.534Z,6.90
2022-08-26T11:59:48.144Z,7.00
2022-08-26T12:04:25.437Z,6.88
2022-08-26T12:10:10.077Z,6.28
2022-08-26T12:14:32.208Z,6.28
2022-08-26T12:18:55.619Z,5.90
2022-08-26T12:23:30.429Z,5.10
2022-08-26T12:27:54.072Z,6.03
2022-08-26T12:32:18.648Z,5.75
2022-08-26T12:36:53.921Z,6.35
2022-08-26T12:41:48.950Z,6.68
2022-08-26T12:46:17.089Z,5.70
2022-08-26T12:50:49.130Z,5.97
2022-08-26T12:55:33.066Z,6.47
2022-08-26T13:00:28.359Z,6.47
2022-08-26T13:05:00.871Z,6.45
2022-08-26T13:09:23.149Z,6.90
2022-08-26T13:13:47.369Z,7.22
2022-08-26T13:18:09.248Z,7.32
2022-08-26T13:22:31.566Z,6.88
2022-08-26T13:26:53.749Z,6.95
2022-08-26T13:31:17.617Z,7.47
2022-08-26T13:35:40.968Z,6.95
2022-08-26T13:40:07.487Z,6.80
2022-08-26T13:44:29.751Z,5.97
2022-08-26T13:48:53.689Z,6.38
2022-08-26T13:53:17.360Z,5.63
2022-08-26T13:57:39.408Z,6.80
2022-08-26T14:02:03.108Z,6.25
2022-08-26T14:06:25.902Z,6.25
2022-08-26T14:15:18.281Z,6.88
2022-08-26T14:19:44.389Z,6.80
2022-08-26T14:24:07.329Z,7.28
2022-08-26T14:28:29.556Z,7.05
2022-08-26T14:32:56.172Z,6.78
2022-08-26T14:37:19.129Z,6.75
2022-08-26T14:41:55.001Z,6.78
2022-08-26T14:46:18.544Z,6.88
2022-08-26T14:50:40.950Z,6.63
2022-08-26T14:55:02.906Z,7.38
2022-08-26T14:59:29.246Z,7.20
2022-08-26T15:03:51.789Z,7.03
2022-08-26T15:08:14.314Z,7.95
2022-08-26T15:12:36.233Z,7.65
2022-08-26T15:16:58.629Z,7.88
2022-08-26T15:21:21.609Z,7.80
2022-08-26T15:25:45.248Z,7.53
2022-08-26T15:30:12.390Z,7.60
2022-08-26T15:34:34.349Z,7.57
2022-08-26T15:38:58.768Z,7.70
2022-08-26T15:43:28.782Z,7.68
2022-08-26T15:48:00.938Z,7.05
2022-08-26T15:52:23.308Z,7.63
2022-08-26T15:56:47.937Z,7.82
2022-08-26T16:01:10.408Z,7.63
2022-08-26T16:05:33.058Z,7.80
2022-08-26T16:09:55.144Z,7.85
2022-08-26T16:14:17.169Z,7.22
2022-08-26T16:18:39.561Z,8.00
2022-08-26T16:23:02.668Z,7.57
2022-08-26T16:27:25.209Z,8.15
2022-08-26T16:31:47.932Z,8.15
2022-08-26T16:36:11.010Z,8.02
2022-08-26T16:40:33.722Z,8.02
2022-08-26T16:44:55.788Z,7.70
2022-08-26T16:49:18.089Z,7.22
2022-08-26T16:53:40.092Z,8.43
2022-08-26T16:58:02.425Z,8.18
2022-08-26T17:02:24.533Z,7.82
2022-08-26T17:06:47.432Z,8.27
2022-08-26T17:11:09.797Z,7.07
2022-08-26T17:15:32.155Z,7.85
2022-08-26T17:19:54.510Z,8.10
2022-08-26T17:24:16.469Z,8.30
2022-08-26T17:28:39.269Z,7.38
2022-08-26T17:33:01.360Z,8.35
2022-08-26T17:37:34.838Z,8.43
2022-08-26T17:41:59.649Z,8.80
2022-08-26T17:46:21.966Z,9.27
2022-08-26T17:50:46.290Z,9.25
2022-08-26T17:55:15.368Z,9.57
2022-08-26T17:59:40.960Z,9.95
2022-08-26T18:04:04.067Z,10.50
2022-08-26T18:08:26.431Z,11.07
2022-08-26T18:12:48.909Z,10.60
2022-08-26T18:17:11.181Z,11.70
2022-08-26T18:21:36.319Z,13.00
2022-08-26T18:25:58.590Z,12.48
2022-08-26T18:30:22.057Z,14.00
2022-08-26T18:34:44.349Z,12.85
2022-08-26T18:39:07.733Z,12.20
2022-08-26T18:43:29.920Z,13.00
2022-08-26T18:47:52.130Z,13.77
2022-08-26T18:52:15.055Z,13.40
2022-08-26T18:56:39.963Z,12.82
2022-08-26T19:01:02.135Z,13.07
2022-08-26T19:05:25.643Z,13.20
2022-08-26T19:09:47.809Z,12.75
2022-08-26T19:14:16.869Z,12.45
2022-08-26T19:18:39.149Z,11.70
2022-08-26T19:23:05.747Z,12.43
2022-08-26T19:27:32.589Z,12.95
2022-08-26T19:31:54.749Z,13.35
2022-08-26T19:36:23.749Z,13.40
2022-08-26T19:40:45.715Z,12.30
2022-08-26T19:45:24.853Z,13.00
2022-08-26T19:49:47.498Z,11.98
2022-08-26T19:54:09.481Z,13.95
2022-08-26T19:58:31.334Z,14.30
2022-08-26T20:02:54.093Z,15.18
2022-08-26T20:07:18.886Z,15.60
2022-08-26T20:11:41.229Z,15.75
2022-08-26T20:16:03.874Z,16.38
2022-08-26T20:20:44.793Z,17.05
2022-08-26T20:26:08.920Z,17.73
2022-08-26T20:32:12.027Z,18.35
2022-08-26T20:42:20.305Z,21.30
2022-08-26T20:46:43.074Z,22.38
2022-08-26T20:51:05.501Z,22.42
2022-08-26T20:55:27.888Z,21.48
2022-08-26T20:59:50.422Z,22.55
2022-08-26T21:04:18.822Z,23.30
2022-08-26T21:08:43.145Z,21.60
2022-08-26T21:13:05.405Z,21.15
2022-08-26T21:17:27.662Z,22.20
2022-08-26T21:21:50.823Z,21.20
2022-08-26T21:26:16.321Z,21.52
2022-08-26T21:30:40.562Z,20.35
2022-08-26T21:35:04.204Z,20.50
2022-08-26T21:39:26.560Z,19.67
2022-08-26T21:43:51.182Z,21.27
2022-08-26T21:48:13.331Z,20.98
2022-08-26T21:52:37.021Z,19.75
2022-08-26T21:56:59.221Z,20.70
2022-08-26T22:01:25.361Z,19.40
2022-08-26T22:05:52.400Z,19.90
2022-08-26T22:10:14.640Z,21.88
2022-08-26T22:14:39.844Z,20.33
2022-08-26T22:19:02.200Z,22.50
2022-08-26T22:23:24.941Z,28.13
2022-08-26T22:27:46.760Z,32.35
2022-08-26T22:32:09.219Z,9.25
2022-08-26T22:36:31.472Z,3.53
2022-08-26T22:40:56.646Z,3.53
2022-08-26T22:45:18.780Z,3.47
2022-08-26T22:49:40.721Z,3.78
2022-08-26T22:54:02.821Z,3.95
2022-08-26T22:58:30.208Z,4.90
2022-08-26T23:02:53.028Z,4.43
2022-08-26T23:07:15.061Z,5.03
2022-08-26T23:11:42.139Z,5.18
2022-08-26T23:16:09.186Z,5.50
2022-08-26T23:20:32.513Z,6.40
2022-08-26T23:24:54.575Z,7.40
2022-08-26T23:29:17.441Z,7.80
2022-08-26T23:33:58.300Z,8.23
2022-08-26T23:38:20.181Z,7.93
2022-08-26T23:42:42.144Z,8.40
2022-08-26T23:47:05.901Z,9.38
2022-08-26T23:51:46.762Z,10.38
2022-08-26T23:56:16.542Z,10.38
